createdAt,value
2022-12-25T00:00:27.930Z,96754.72
2022-12-25T00:02:57.702Z,96716.28
2022-12-25T00:05:26.606Z,96710.22
2022-12-25T00:07:54.858Z,96698.94
2022-12-25T00:10:23.247Z,96738.19
2022-12-25T00:12:51.889Z,96762.31
2022-12-25T00:15:20.281Z,96731.84
2022-12-25T00:17:48.550Z,96706.94
2022-12-25T00:20:18.224Z,96715.75
2022-12-25T00:22:46.542Z,96705.13
2022-12-25T00:25:14.735Z,96689.69
2022-12-25T00:27:42.960Z,96749.47
2022-12-25T00:30:17.004Z,96727.25
2022-12-25T00:32:45.234Z,96742.94
2022-12-25T00:35:13.404Z,96746.25
2022-12-25T00:37:43.124Z,96753.94
2022-12-25T00:40:12.245Z,96724.47
2022-12-25T00:42:40.500Z,96712.66
2022-12-25T00:45:09.979Z,96759.97
2022-12-25T00:47:38.195Z,96736.59
2022-12-25T00:50:08.518Z,96776.22
2022-12-25T00:52:36.705Z,96761.91
2022-12-25T00:55:07.471Z,96758.56
2022-12-25T00:57:35.874Z,96783.25
2022-12-25T01:00:05.279Z,96673.03
2022-12-25T01:02:33.556Z,96726.97
2022-12-25T01:07:54.461Z,96748.94
2022-12-25T01:10:23.039Z,96745.91
2022-12-25T01:12:52.613Z,96748.91
2022-12-25T01:15:21.127Z,96673.22
2022-12-25T01:17:49.553Z,96684.81
2022-12-25T01:20:19.184Z,96760.31
2022-12-25T01:22:48.292Z,96704.91
2022-12-25T01:25:16.492Z,96674.06
2022-12-25T01:27:46.508Z,96706.84
2022-12-25T01:30:14.973Z,96750.31
2022-12-25T01:32:43.207Z,96641.75
2022-12-25T01:35:12.108Z,96685.84
2022-12-25T01:37:41.142Z,96728.84
2022-12-25T01:40:10.715Z,96667.78
2022-12-25T01:42:38.995Z,96716.38
2022-12-25T01:45:42.195Z,96743.13
2022-12-25T01:48:16.107Z,96690.75
2022-12-25T01:50:50.123Z,96709.69
2022-12-25T01:53:18.515Z,96684.84
2022-12-25T01:55:49.922Z,96772.06
2022-12-25T01:58:19.244Z,96681.16
2022-12-25T02:00:49.210Z,96724.59
2022-12-25T02:03:17.596Z,96749.25
2022-12-25T02:05:48.311Z,96780.50
2022-12-25T02:08:18.778Z,96767.13
2022-12-25T02:10:47.385Z,96685.00
2022-12-25T02:13:19.867Z,96763.84
2022-12-25T02:16:02.399Z,96754.72
2022-12-25T02:18:38.823Z,96763.44
2022-12-25T02:21:49.713Z,96761.22
2022-12-25T02:24:40.327Z,96786.72
2022-12-25T02:27:19.798Z,96805.09
2022-12-25T02:29:58.215Z,96554.78
2022-12-25T02:32:32.353Z,96788.09
2022-12-25T02:35:09.141Z,96749.81
2022-12-25T02:37:41.809Z,96686.50
2022-12-25T02:40:17.031Z,96706.31
2022-12-25T02:43:09.000Z,96736.59
2022-12-25T02:46:02.931Z,96671.09
2022-12-25T02:48:58.964Z,96691.13
2022-12-25T02:51:50.085Z,96710.19
2022-12-25T02:54:41.728Z,96698.03
2022-12-25T02:57:30.949Z,96725.72
2022-12-25T03:00:18.742Z,96750.50
2022-12-25T03:03:08.130Z,96678.00
2022-12-25T03:05:58.790Z,96705.38
2022-12-25T03:08:31.122Z,96706.59
2022-12-25T03:11:24.119Z,96733.31
2022-12-25T03:13:56.292Z,96703.19
2022-12-25T03:16:53.652Z,96703.84
2022-12-25T03:19:45.108Z,96700.25
2022-12-25T03:22:37.447Z,96696.41
2022-12-25T03:25:24.993Z,96684.59
2022-12-25T03:27:57.706Z,96719.56
2022-12-25T03:30:49.346Z,96694.91
2022-12-25T03:33:44.565Z,96658.44
2022-12-25T03:36:21.281Z,96667.81
2022-12-25T03:39:16.217Z,96682.69
2022-12-25T03:42:07.619Z,96656.50
2022-12-25T03:45:02.393Z,96658.56
2022-12-25T03:47:52.527Z,96680.19
2022-12-25T03:50:44.561Z,96689.84
2022-12-25T03:53:38.940Z,96687.63
2022-12-25T03:56:26.529Z,96676.78
2022-12-25T03:59:19.358Z,96672.75
2022-12-25T04:02:09.490Z,96631.22
2022-12-25T04:04:55.642Z,96684.88
2022-12-25T04:07:41.607Z,96623.78
2022-12-25T04:10:29.767Z,96667.78
2022-12-25T04:13:15.696Z,96635.75
2022-12-25T04:16:16.281Z,96664.81
2022-12-25T04:19:01.915Z,96648.28
2022-12-25T04:21:48.449Z,96706.38
2022-12-25T04:24:34.497Z,96674.31
2022-12-25T04:27:21.942Z,96682.16
2022-12-25T04:30:07.907Z,96694.69
2022-12-25T04:32:53.974Z,96624.59
2022-12-25T04:35:39.814Z,96646.63
2022-12-25T04:38:08.063Z,96671.66
2022-12-25T04:40:36.859Z,96640.84
2022-12-25T04:43:06.515Z,96660.38
2022-12-25T04:45:34.747Z,96615.25
2022-12-25T04:48:03.001Z,96641.13
2022-12-25T04:50:31.278Z,96624.56
2022-12-25T04:52:59.544Z,96593.47
2022-12-25T04:55:27.779Z,96602.94
2022-12-25T04:57:56.011Z,96642.84
2022-12-25T05:00:26.503Z,96587.81
2022-12-25T05:02:54.934Z,96609.38
2022-12-25T05:05:23.273Z,96617.03
2022-12-25T05:07:51.539Z,96658.56
2022-12-25T05:10:19.954Z,96665.28
2022-12-25T05:12:48.183Z,96654.94
2022-12-25T05:15:16.598Z,96639.06
2022-12-25T05:17:46.196Z,96632.47
2022-12-25T05:20:14.582Z,96593.72
2022-12-25T05:22:43.590Z,96609.31
2022-12-25T05:25:11.835Z,96617.03
2022-12-25T05:27:40.171Z,96625.50
2022-12-25T05:30:10.209Z,96662.09
2022-12-25T05:32:38.454Z,96633.88
2022-12-25T05:35:09.465Z,96658.50
2022-12-25T05:37:37.973Z,96662.34
2022-12-25T05:40:07.885Z,96563.38
2022-12-25T05:42:36.375Z,96639.59
2022-12-25T05:45:08.491Z,96646.72
2022-12-25T05:47:36.728Z,96527.56
2022-12-25T05:50:31.165Z,96615.66
2022-12-25T05:53:08.528Z,96665.75
2022-12-25T05:55:38.013Z,96609.06
2022-12-25T05:58:07.727Z,96628.44
2022-12-25T06:00:36.638Z,96589.41
2022-12-25T06:03:05.761Z,96659.00
2022-12-25T06:05:35.426Z,96348.50
2022-12-25T06:08:03.665Z,96676.75
2022-12-25T06:10:31.943Z,96597.50
2022-12-25T06:13:00.837Z,96634.34
2022-12-25T06:15:29.132Z,96696.00
2022-12-25T06:17:57.400Z,96623.28
2022-12-25T06:20:25.638Z,96668.75
2022-12-25T06:22:55.362Z,96604.38
2022-12-25T06:25:23.622Z,96647.66
2022-12-25T06:27:51.864Z,96660.28
2022-12-25T06:30:20.334Z,96633.56
2022-12-25T06:32:48.591Z,96597.63
2022-12-25T06:35:16.994Z,96618.22
2022-12-25T06:37:45.251Z,96657.97
2022-12-25T06:40:15.480Z,96641.50
2022-12-25T06:42:43.695Z,96640.09
2022-12-25T06:45:12.681Z,96623.06
2022-12-25T06:47:40.945Z,96629.56
2022-12-25T06:50:09.765Z,96594.19
2022-12-25T06:52:37.991Z,96596.84
2022-12-25T06:55:07.274Z,96610.47
2022-12-25T06:57:36.837Z,96631.81
2022-12-25T07:00:06.755Z,96609.78
2022-12-25T07:02:36.307Z,96665.91
2022-12-25T07:05:06.349Z,96648.91
2022-12-25T07:07:34.588Z,96595.06
2022-12-25T07:10:02.835Z,96613.69
2022-12-25T07:12:31.067Z,96628.13
2022-12-25T07:15:00.712Z,96628.19
2022-12-25T07:17:28.933Z,96720.72
2022-12-25T07:19:57.700Z,96626.50
2022-12-25T07:22:25.997Z,96630.38
2022-12-25T07:24:54.262Z,96610.72
2022-12-25T07:27:22.483Z,96620.63
2022-12-25T07:29:50.852Z,96601.59
2022-12-25T07:32:20.488Z,96620.59
2022-12-25T07:34:48.740Z,96566.47
2022-12-25T07:37:16.987Z,96597.84
2022-12-25T07:39:45.242Z,96637.69
2022-12-25T07:42:13.431Z,96642.91
2022-12-25T07:44:41.704Z,96657.38
2022-12-25T07:47:09.943Z,96661.91
2022-12-25T07:49:39.533Z,96608.59
2022-12-25T07:52:07.858Z,96674.56
2022-12-25T07:54:36.106Z,96600.03
2022-12-25T07:57:04.460Z,96652.56
2022-12-25T07:59:32.706Z,96675.72
2022-12-25T08:02:01.115Z,96607.22
2022-12-25T08:04:29.690Z,96657.72
2022-12-25T08:06:59.250Z,96626.19
2022-12-25T08:09:27.473Z,96625.94
2022-12-25T08:11:55.694Z,96654.81
2022-12-25T08:14:23.926Z,96624.56
2022-12-25T08:16:52.141Z,96619.09
2022-12-25T08:19:20.971Z,96608.78
2022-12-25T08:21:49.186Z,96597.91
2022-12-25T08:24:18.993Z,96624.56
2022-12-25T08:26:47.275Z,96565.16
2022-12-25T08:29:15.642Z,96589.38
2022-12-25T08:31:46.675Z,96626.94
2022-12-25T08:34:15.691Z,96610.84
2022-12-25T08:36:43.913Z,96663.66
2022-12-25T08:39:12.187Z,96598.72
2022-12-25T08:41:41.875Z,96605.19
2022-12-25T08:44:12.851Z,96642.91
2022-12-25T08:46:41.225Z,96612.75
2022-12-25T08:49:09.944Z,96587.84
2022-12-25T08:51:38.262Z,96588.28
2022-12-25T08:54:06.724Z,96671.69
2022-12-25T08:56:36.531Z,96650.25
2022-12-25T08:59:06.225Z,96636.44
2022-12-25T09:01:39.190Z,96643.06
2022-12-25T09:04:07.996Z,96638.25
2022-12-25T09:06:50.236Z,96598.75
2022-12-25T09:09:18.596Z,96641.41
2022-12-25T09:11:46.808Z,96622.91
2022-12-25T09:14:16.395Z,96621.00
2022-12-25T09:16:44.659Z,96700.91
2022-12-25T09:19:12.880Z,96614.38
2022-12-25T09:21:41.091Z,96610.88
2022-12-25T09:24:09.921Z,96588.31
2022-12-25T09:26:39.035Z,96538.28
2022-12-25T09:29:07.397Z,96541.03
2022-12-25T09:31:36.991Z,96595.22
2022-12-25T09:34:05.310Z,96589.44
2022-12-25T09:36:33.536Z,96522.06
2022-12-25T09:39:01.735Z,96583.81
2022-12-25T09:41:34.922Z,96509.34
2022-12-25T09:44:08.909Z,96491.03
2022-12-25T09:46:44.621Z,96496.41
2022-12-25T09:49:21.639Z,96517.16
2022-12-25T09:51:58.712Z,96512.06
2022-12-25T09:54:40.960Z,96230.22
2022-12-25T09:57:13.713Z,96510.88
2022-12-25T09:59:45.033Z,96517.38
2022-12-25T10:02:56.862Z,96553.09
2022-12-25T10:05:54.439Z,96512.94
2022-12-25T10:08:36.712Z,96561.41
2022-12-25T10:11:19.594Z,96544.72
2022-12-25T10:14:09.694Z,96542.47
2022-12-25T10:16:48.882Z,96549.09
2022-12-25T10:19:32.414Z,96565.34
2022-12-25T10:22:10.452Z,96542.06
2022-12-25T10:24:46.360Z,96566.97
2022-12-25T10:27:20.422Z,96550.88
2022-12-25T10:29:54.872Z,96526.25
2022-12-25T10:32:23.753Z,96540.91
2022-12-25T10:34:53.343Z,96554.22
2022-12-25T10:37:21.585Z,96548.28
2022-12-25T10:39:49.834Z,96540.09
2022-12-25T10:42:35.042Z,96503.84
2022-12-25T10:45:10.775Z,96507.78
2022-12-25T10:47:42.577Z,96529.66
2022-12-25T10:50:20.896Z,96491.13
2022-12-25T10:52:57.569Z,96475.78
2022-12-25T10:55:29.206Z,96504.88
2022-12-25T10:57:59.276Z,96499.84
2022-12-25T11:00:31.053Z,96492.91
2022-12-25T11:03:00.009Z,96490.91
2022-12-25T11:05:55.715Z,96490.06
2022-12-25T11:08:26.837Z,96478.38
2022-12-25T11:10:58.809Z,96454.81
2022-12-25T11:13:30.463Z,96491.84
2022-12-25T11:16:09.499Z,96467.31
2022-12-25T11:18:49.511Z,96462.16
2022-12-25T11:21:22.993Z,96496.13
2022-12-25T11:23:59.483Z,96430.91
2022-12-25T11:26:30.062Z,96479.50
2022-12-25T11:28:59.173Z,96491.00
2022-12-25T11:31:38.486Z,96453.84
2022-12-25T11:34:12.302Z,96437.22
2022-12-25T11:36:46.061Z,96470.47
2022-12-25T11:39:23.892Z,96441.22
2022-12-25T11:41:54.749Z,96468.63
2022-12-25T11:44:39.949Z,96458.19
2022-12-25T11:47:16.874Z,96430.56
2022-12-25T11:49:56.092Z,96461.53
2022-12-25T11:52:38.801Z,96467.00
2022-12-25T11:55:18.360Z,96427.47
2022-12-25T11:57:52.820Z,96410.00
2022-12-25T12:00:21.759Z,96376.84
2022-12-25T12:02:56.092Z,96321.44
2022-12-25T12:05:30.747Z,96414.75
2022-12-25T12:08:02.387Z,96395.13
2022-12-25T12:10:41.769Z,96374.88
2022-12-25T12:13:27.086Z,96401.22
2022-12-25T12:15:55.768Z,96413.28
2022-12-25T12:18:31.080Z,96373.06
2022-12-25T12:21:02.645Z,96398.06
2022-12-25T12:23:36.193Z,96406.59
2022-12-25T12:26:05.427Z,96331.53
2022-12-25T12:28:45.842Z,96403.75
2022-12-25T12:31:14.969Z,96424.44
2022-12-25T12:33:51.057Z,96341.72
2022-12-25T12:36:34.422Z,96433.81
2022-12-25T12:39:06.203Z,96209.41
2022-12-25T12:41:47.069Z,96325.69
2022-12-25T12:44:17.876Z,96340.94
2022-12-25T12:46:54.551Z,96322.06
2022-12-25T12:49:26.048Z,96355.31
2022-12-25T12:52:07.675Z,96361.00
2022-12-25T12:54:57.180Z,96263.06
2022-12-25T12:57:29.462Z,96293.66
2022-12-25T13:00:04.796Z,96319.75
2022-12-25T13:03:41.370Z,96331.63
2022-12-25T13:06:28.449Z,96280.25
2022-12-25T13:09:08.031Z,96322.72
2022-12-25T13:11:43.399Z,96301.19
2022-12-25T13:14:17.464Z,96328.88
2022-12-25T13:16:48.881Z,96375.06
2022-12-25T13:19:21.867Z,96291.88
2022-12-25T13:21:55.845Z,96332.63
2022-12-25T13:24:29.658Z,96377.50
2022-12-25T13:27:21.867Z,96312.06
2022-12-25T13:29:50.205Z,96336.72
2022-12-25T13:32:25.225Z,96317.41
2022-12-25T13:34:54.963Z,96325.75
2022-12-25T13:37:27.149Z,96341.34
2022-12-25T13:39:58.333Z,96320.25
2022-12-25T13:42:29.391Z,96319.16
2022-12-25T13:45:00.471Z,96360.47
2022-12-25T13:47:34.310Z,96330.00
2022-12-25T13:50:15.927Z,96339.22
2022-12-25T13:52:44.243Z,96321.81
2022-12-25T13:55:15.118Z,96322.69
2022-12-25T13:57:51.622Z,96336.03
2022-12-25T14:00:23.154Z,96328.97
2022-12-25T14:02:52.478Z,96317.09
2022-12-25T14:05:34.577Z,96368.50
2022-12-25T14:08:16.705Z,96323.84
2022-12-25T14:10:50.680Z,96286.41
2022-12-25T14:13:23.813Z,96225.31
2022-12-25T14:15:53.819Z,96358.03
2022-12-25T14:18:24.280Z,96320.66
2022-12-25T14:21:02.840Z,96324.16
2022-12-25T14:23:41.316Z,96340.78
2022-12-25T14:26:17.566Z,96339.00
2022-12-25T14:28:51.664Z,96334.03
2022-12-25T14:31:21.308Z,96327.19
2022-12-25T14:33:52.146Z,96238.63
2022-12-25T14:36:20.576Z,96339.88
2022-12-25T14:38:59.869Z,96310.50
2022-12-25T14:41:37.066Z,96310.47
2022-12-25T14:44:29.127Z,96313.09
2022-12-25T14:47:15.685Z,96358.75
2022-12-25T14:49:44.847Z,96351.53
2022-12-25T14:52:23.478Z,96370.66
2022-12-25T14:54:55.558Z,96349.88
2022-12-25T14:57:31.517Z,96361.00
2022-12-25T15:00:06.978Z,96322.97
2022-12-25T15:02:47.386Z,96321.66
2022-12-25T15:05:34.588Z,96313.84
2022-12-25T15:08:21.115Z,96359.75
2022-12-25T15:11:00.381Z,96320.06
2022-12-25T15:13:34.245Z,96339.50
2022-12-25T15:16:12.359Z,96358.59
2022-12-25T15:18:43.785Z,96294.34
2022-12-25T15:21:18.386Z,96264.84
2022-12-25T15:23:46.738Z,96324.81
2022-12-25T15:26:16.167Z,96345.28
2022-12-25T15:28:44.456Z,96333.63
2022-12-25T15:31:23.194Z,96326.16
2022-12-25T15:33:51.723Z,96300.72
2022-12-25T15:36:20.039Z,96360.81
2022-12-25T15:38:48.279Z,96343.31
2022-12-25T15:41:33.981Z,96340.16
2022-12-25T15:44:02.458Z,96336.53
2022-12-25T15:46:33.028Z,96290.91
2022-12-25T15:49:01.818Z,96340.97
2022-12-25T15:51:30.232Z,96311.44
2022-12-25T15:53:59.017Z,96362.84
2022-12-25T15:56:28.188Z,96369.69
2022-12-25T15:58:56.996Z,96325.06
2022-12-25T16:01:25.370Z,96334.75
2022-12-25T16:03:55.027Z,96313.63
2022-12-25T16:06:23.356Z,96337.78
2022-12-25T16:08:51.620Z,96361.81
2022-12-25T16:11:19.863Z,96314.22
2022-12-25T16:13:48.098Z,96348.00
2022-12-25T16:16:16.497Z,96283.84
2022-12-25T16:18:47.733Z,96362.31
2022-12-25T16:21:21.030Z,96329.75
2022-12-25T16:23:49.302Z,96333.09
2022-12-25T16:26:17.736Z,96258.97
2022-12-25T16:28:46.371Z,96328.13
2022-12-25T16:31:14.585Z,96321.25
2022-12-25T16:33:42.840Z,96339.00
2022-12-25T16:36:11.144Z,96282.50
2022-12-25T16:38:40.777Z,96334.59
2022-12-25T16:41:12.336Z,96325.31
2022-12-25T16:43:41.137Z,96357.63
2022-12-25T16:46:11.550Z,96356.72
2022-12-25T16:48:39.845Z,96314.50
2022-12-25T16:51:12.684Z,96339.97
2022-12-25T16:53:42.741Z,96345.22
2022-12-25T16:56:15.150Z,96345.66
2022-12-25T16:58:44.359Z,96337.97
2022-12-25T17:01:16.163Z,96371.59
2022-12-25T17:03:51.652Z,96287.97
2022-12-25T17:06:23.150Z,96301.00
2022-12-25T17:08:57.217Z,96317.34
2022-12-25T17:11:29.555Z,96350.00
2022-12-25T17:13:59.796Z,96335.25
2022-12-25T17:16:31.282Z,96357.63
2022-12-25T17:19:02.159Z,96314.88
2022-12-25T17:21:32.617Z,96359.69
2022-12-25T17:24:04.184Z,96336.66
2022-12-25T17:26:32.923Z,96333.06
2022-12-25T17:29:01.401Z,96334.72
2022-12-25T17:31:30.179Z,96366.97
2022-12-25T17:33:58.683Z,96348.91
2022-12-25T17:36:26.994Z,96356.63
2022-12-25T17:38:55.329Z,96335.38
2022-12-25T17:41:24.943Z,96334.72
2022-12-25T17:43:53.231Z,96300.13
2022-12-25T17:46:23.946Z,96321.06
2022-12-25T17:48:57.567Z,96351.16
2022-12-25T17:51:28.785Z,96327.94
2022-12-25T17:54:00.496Z,96258.94
2022-12-25T17:56:30.292Z,96345.56
2022-12-25T17:59:03.565Z,96320.94
2022-12-25T18:01:31.948Z,96312.09
2022-12-25T18:04:01.307Z,96334.59
2022-12-25T18:06:30.032Z,96351.91
2022-12-25T18:08:59.468Z,96307.16
2022-12-25T18:11:33.118Z,96327.22
2022-12-25T18:14:03.973Z,96328.66
2022-12-25T18:16:35.067Z,96319.34
2022-12-25T18:19:03.909Z,96292.88
2022-12-25T18:21:32.845Z,96342.88
2022-12-25T18:24:02.955Z,96336.19
2022-12-25T18:26:33.068Z,96367.09
2022-12-25T18:29:01.417Z,96337.38
2022-12-25T18:31:31.181Z,96361.88
2022-12-25T18:34:00.783Z,96346.56
2022-12-25T18:36:30.780Z,96375.34
2022-12-25T18:39:00.295Z,96339.84
2022-12-25T18:41:30.328Z,96385.53
2022-12-25T18:44:01.099Z,96400.16
2022-12-25T18:46:29.549Z,96402.63
2022-12-25T18:48:58.312Z,96385.53
2022-12-25T18:51:34.746Z,96354.16
2022-12-25T18:54:05.195Z,96354.97
2022-12-25T18:56:33.468Z,96347.41
2022-12-25T18:59:03.085Z,96377.66
2022-12-25T19:01:31.488Z,96347.41
2022-12-25T19:04:05.236Z,96346.25
2022-12-25T19:06:34.776Z,96400.50
2022-12-25T19:09:09.253Z,96294.50
2022-12-25T19:11:44.023Z,96346.75
2022-12-25T19:14:16.516Z,96360.91
2022-12-25T19:16:44.878Z,96323.94
2022-12-25T19:19:14.289Z,96337.09
2022-12-25T19:21:42.756Z,96368.13
2022-12-25T19:24:11.021Z,96359.88
2022-12-25T19:26:39.241Z,96373.47
2022-12-25T19:29:07.902Z,96368.56
2022-12-25T19:31:38.179Z,96263.22
2022-12-25T19:34:06.757Z,96394.00
2022-12-25T19:36:35.611Z,96371.69
2022-12-25T19:39:04.842Z,96369.06
2022-12-25T19:41:33.207Z,96364.09
2022-12-25T19:44:01.599Z,96411.91
2022-12-25T19:46:33.037Z,96389.22
2022-12-25T19:49:04.469Z,96412.31
2022-12-25T19:51:35.306Z,96384.97
2022-12-25T19:54:04.714Z,96425.38
2022-12-25T19:56:33.926Z,96388.56
2022-12-25T19:59:02.371Z,96390.03
2022-12-25T20:01:31.756Z,96393.19
2022-12-25T20:04:02.003Z,96342.78
2022-12-25T20:06:33.147Z,96367.28
2022-12-25T20:09:04.469Z,96422.06
2022-12-25T20:11:35.051Z,96408.59
2022-12-25T20:14:03.649Z,96394.25
2022-12-25T20:16:31.948Z,96393.41
2022-12-25T20:19:01.863Z,96420.66
2022-12-25T20:21:30.218Z,96377.78
2022-12-25T20:23:59.353Z,96419.41
2022-12-25T20:26:30.386Z,96455.03
2022-12-25T20:28:59.360Z,96413.63
2022-12-25T20:31:29.841Z,96418.16
2022-12-25T20:34:00.859Z,96429.19
2022-12-25T20:36:36.306Z,96414.72
2022-12-25T20:39:08.618Z,96428.91
2022-12-25T20:41:37.115Z,96397.53
2022-12-25T20:44:06.711Z,96388.59
2022-12-25T20:46:41.280Z,96448.53
2022-12-25T20:49:10.047Z,96428.78
2022-12-25T20:51:40.516Z,96419.66
2022-12-25T20:54:10.352Z,96434.72
2022-12-25T20:56:38.717Z,96402.59
2022-12-25T20:59:06.941Z,96394.81
2022-12-25T21:01:37.321Z,96430.88
2022-12-25T21:04:11.643Z,96403.72
2022-12-25T21:06:46.118Z,96436.13
2022-12-25T21:09:14.437Z,96434.28
2022-12-25T21:11:42.683Z,96312.66
2022-12-25T21:14:10.927Z,96459.13
2022-12-25T21:16:39.257Z,96407.47
2022-12-25T21:19:07.502Z,96434.81
2022-12-25T21:21:36.398Z,96448.56
2022-12-25T21:24:06.629Z,96474.09
2022-12-25T21:26:35.306Z,96429.25
2022-12-25T21:29:05.321Z,96415.94
2022-12-25T21:31:55.337Z,96463.03
2022-12-25T21:34:22.871Z,96446.75
2022-12-25T21:36:51.135Z,96448.03
2022-12-25T21:39:20.702Z,96415.66
2022-12-25T21:41:48.966Z,96446.53
2022-12-25T21:44:17.161Z,96403.38
2022-12-25T21:46:45.448Z,96414.59
2022-12-25T21:49:33.846Z,96474.94
2022-12-25T21:52:09.943Z,96448.72
2022-12-25T21:54:39.612Z,96482.38
2022-12-25T21:57:07.887Z,96500.81
2022-12-25T21:59:36.328Z,96445.09
2022-12-25T22:02:11.327Z,96470.88
2022-12-25T22:04:42.916Z,96484.63
2022-12-25T22:07:19.609Z,96443.50
2022-12-25T22:09:51.527Z,96477.84
2022-12-25T22:12:39.270Z,96435.22
2022-12-25T22:15:11.280Z,96447.13
2022-12-25T22:18:00.153Z,96495.69
2022-12-25T22:20:31.327Z,96470.50
2022-12-25T22:22:59.938Z,96450.44
2022-12-25T22:25:29.688Z,96484.56
2022-12-25T22:27:58.583Z,96455.00
2022-12-25T22:30:29.262Z,96483.19
2022-12-25T22:32:58.209Z,96462.81
2022-12-25T22:35:26.698Z,96489.94
2022-12-25T22:37:55.628Z,96484.34
2022-12-25T22:40:23.970Z,96455.69
2022-12-25T22:42:57.078Z,96498.50
2022-12-25T22:45:25.558Z,96448.75
2022-12-25T22:47:54.190Z,96470.50
2022-12-25T22:50:22.460Z,96468.03
2022-12-25T22:52:50.707Z,96479.16
2022-12-25T22:55:20.304Z,96453.91
2022-12-25T22:57:49.018Z,96566.34
2022-12-25T23:00:18.753Z,96458.88
2022-12-25T23:02:47.568Z,96454.59
2022-12-25T23:05:16.319Z,96433.31
2022-12-25T23:07:44.612Z,96478.63
2022-12-25T23:10:12.951Z,96483.97
2022-12-25T23:13:00.293Z,96495.28
2022-12-25T23:15:30.070Z,96502.16
2022-12-25T23:18:15.587Z,96468.38
2022-12-25T23:21:01.634Z,96472.09
2022-12-25T23:23:47.638Z,96481.38
2022-12-25T23:26:18.913Z,96523.19
2022-12-25T23:29:04.958Z,96541.50
2022-12-25T23:31:37.972Z,96493.19
2022-12-25T23:34:07.674Z,96494.22
2022-12-25T23:36:36.190Z,96458.88
2022-12-25T23:39:10.458Z,96460.81
2022-12-25T23:41:39.814Z,96526.00
2022-12-25T23:44:08.819Z,96477.91
2022-12-25T23:46:39.498Z,96459.75
2022-12-25T23:49:08.652Z,96490.88
2022-12-25T23:51:37.999Z,96567.03
2022-12-25T23:54:07.923Z,96523.34
2022-12-25T23:56:36.517Z,96419.34
2022-12-25T23:59:05.069Z,96478.63
